createdAt,value
2023-04-01T00:00:25.522Z,98.00
2023-04-01T00:00:58.809Z,97.79
2023-04-01T00:01:30.384Z,97.94
2023-04-01T00:02:02.061Z,98.01
2023-04-01T00:02:33.805Z,98.10
2023-04-01T00:03:06.155Z,98.23
2023-04-01T00:03:38.345Z,98.16
2023-04-01T00:04:10.118Z,98.24
2023-04-01T00:04:42.554Z,98.14
2023-04-01T00:05:14.659Z,98.10
2023-04-01T00:05:46.935Z,98.29
2023-04-01T00:06:19.592Z,98.25
2023-04-01T00:06:52.694Z,98.28
2023-04-01T00:07:24.430Z,98.25
2023-04-01T00:08:02.579Z,98.26
2023-04-01T00:08:34.439Z,98.51
2023-04-01T00:09:06.075Z,98.44
2023-04-01T00:09:38.422Z,98.36
2023-04-01T00:10:12.552Z,98.27
2023-04-01T00:10:44.185Z,98.44
2023-04-01T00:11:16.443Z,98.36
2023-04-01T00:11:48.098Z,98.47
2023-04-01T00:12:19.689Z,98.41
2023-04-01T00:12:51.373Z,98.41
2023-04-01T00:13:23.240Z,98.42
2023-04-01T00:13:55.604Z,98.51
2023-04-01T00:14:27.406Z,98.60
2023-04-01T00:14:59.400Z,98.58
2023-04-01T00:15:31.600Z,98.75
2023-04-01T00:16:13.468Z,98.77
2023-04-01T00:16:51.917Z,98.97
2023-04-01T00:17:23.820Z,98.84
2023-04-01T00:17:56.104Z,98.87
2023-04-01T00:18:28.147Z,98.77
2023-04-01T00:19:01.129Z,98.78
2023-04-01T00:19:33.561Z,98.84
2023-04-01T00:20:08.321Z,98.86
2023-04-01T00:20:39.937Z,98.81
2023-04-01T00:21:11.520Z,98.78
2023-04-01T00:21:43.095Z,98.76
2023-04-01T00:22:14.915Z,98.72
2023-04-01T00:22:46.694Z,98.86
2023-04-01T00:23:19.360Z,98.78
2023-04-01T00:23:52.141Z,98.73
2023-04-01T00:24:24.187Z,98.67
2023-04-01T00:24:56.021Z,98.79
2023-04-01T00:25:27.681Z,98.83
2023-04-01T00:26:02.009Z,98.77
2023-04-01T00:26:33.751Z,98.81
2023-04-01T00:27:05.644Z,98.73
2023-04-01T00:27:37.350Z,98.82
2023-04-01T00:28:09.229Z,98.88
2023-04-01T00:28:41.794Z,98.85
2023-04-01T00:29:13.478Z,98.89
2023-04-01T00:29:46.331Z,98.87
2023-04-01T00:30:18.448Z,98.84
2023-04-01T00:30:50.060Z,98.83
2023-04-01T00:31:21.906Z,98.79
2023-04-01T00:31:53.750Z,98.86
2023-04-01T00:32:26.373Z,98.92
2023-04-01T00:32:58.075Z,98.96
2023-04-01T00:33:29.654Z,99.05
2023-04-01T00:34:01.304Z,99.09
2023-04-01T00:34:32.957Z,99.02
2023-04-01T00:35:05.280Z,99.09
2023-04-01T00:35:37.018Z,99.05
2023-04-01T00:36:17.388Z,99.02
2023-04-01T00:36:49.049Z,99.04
2023-04-01T00:37:22.178Z,99.01
2023-04-01T00:37:53.840Z,99.06
2023-04-01T00:38:25.410Z,99.12
2023-04-01T00:39:00.149Z,99.14
2023-04-01T00:39:32.988Z,99.08
2023-04-01T00:40:07.498Z,99.00
2023-04-01T00:40:45.546Z,98.95
2023-04-01T00:41:18.185Z,98.94
2023-04-01T00:41:49.869Z,98.96
2023-04-01T00:42:21.561Z,98.89
2023-04-01T00:42:53.185Z,98.85
2023-04-01T00:43:24.803Z,98.80
2023-04-01T00:44:20.018Z,98.84
2023-04-01T00:44:53.711Z,98.89
2023-04-01T00:45:38.531Z,99.09
2023-04-01T00:46:10.452Z,98.88
2023-04-01T00:46:42.147Z,98.76
2023-04-01T00:47:14.059Z,98.91
2023-04-01T00:47:45.793Z,98.95
2023-04-01T00:48:21.869Z,98.94
2023-04-01T00:48:56.301Z,98.84
2023-04-01T00:49:31.899Z,98.74
2023-04-01T00:50:03.623Z,98.77
2023-04-01T00:50:36.707Z,98.66
2023-04-01T00:51:16.966Z,98.60
2023-04-01T00:51:51.145Z,98.57
2023-04-01T00:52:25.231Z,98.69
2023-04-01T00:52:57.188Z,98.72
2023-04-01T00:53:29.797Z,98.58
2023-04-01T00:54:04.655Z,98.53
2023-04-01T00:54:37.410Z,98.56
2023-04-01T00:55:11.936Z,98.48
2023-04-01T00:55:50.313Z,98.36
2023-04-01T00:56:56.894Z,98.43
2023-04-01T00:57:37.607Z,98.54
2023-04-01T00:58:14.782Z,98.62
2023-04-01T00:58:52.038Z,98.75
2023-04-01T00:59:27.567Z,98.66
2023-04-01T01:00:32.549Z,98.33
2023-04-01T01:01:04.645Z,98.49
2023-04-01T01:01:37.058Z,98.57
2023-04-01T01:02:11.259Z,98.71
2023-04-01T01:02:45.094Z,98.65
2023-04-01T01:03:17.002Z,98.64
2023-04-01T01:03:48.677Z,98.82
2023-04-01T01:04:29.300Z,98.79
2023-04-01T01:05:00.985Z,98.56
2023-04-01T01:05:51.947Z,98.76
2023-04-01T01:06:53.766Z,98.69
2023-04-01T01:07:43.643Z,98.62
2023-04-01T01:08:39.169Z,98.60
2023-04-01T01:09:38.811Z,98.74
2023-04-01T01:10:34.478Z,98.74
2023-04-01T01:11:11.406Z,98.58
2023-04-01T01:11:47.987Z,98.61
2023-04-01T01:12:30.685Z,98.55
2023-04-01T01:13:24.020Z,98.57
2023-04-01T01:13:55.743Z,98.46
2023-04-01T01:15:05.236Z,98.64
2023-04-01T01:15:47.516Z,98.61
2023-04-01T01:16:27.849Z,98.74
2023-04-01T01:17:11.457Z,98.58
2023-04-01T01:17:48.886Z,98.62
2023-04-01T01:18:28.750Z,98.69
2023-04-01T01:19:36.600Z,98.78
2023-04-01T01:20:41.630Z,98.56
2023-04-01T01:21:21.543Z,98.62
2023-04-01T01:22:15.716Z,98.58
2023-04-01T01:22:53.260Z,98.61
2023-04-01T01:23:49.424Z,98.68
2023-04-01T01:24:36.253Z,98.68
2023-04-01T01:25:23.130Z,98.67
2023-04-01T01:26:06.797Z,98.48
2023-04-01T01:26:38.468Z,98.51
2023-04-01T01:27:10.078Z,98.80
2023-04-01T01:27:48.251Z,98.77
2023-04-01T01:28:37.696Z,98.83
2023-04-01T01:29:30.805Z,98.73
2023-04-01T01:30:18.292Z,98.73
2023-04-01T01:31:11.522Z,98.77
2023-04-01T01:32:02.173Z,98.79
2023-04-01T01:32:52.435Z,98.76
2023-04-01T01:33:42.571Z,98.74
2023-04-01T01:34:31.957Z,98.77
2023-04-01T01:35:17.866Z,98.89
2023-04-01T01:35:52.352Z,98.84
2023-04-01T01:36:30.346Z,98.93
2023-04-01T01:37:09.933Z,98.86
2023-04-01T01:37:42.955Z,98.75
2023-04-01T01:38:17.891Z,98.84
2023-04-01T01:38:51.368Z,98.83
2023-04-01T01:39:28.964Z,98.81
2023-04-01T01:40:05.088Z,98.73
2023-04-01T01:40:38.066Z,98.70
2023-04-01T01:41:12.268Z,98.71
2023-04-01T01:41:46.232Z,98.70
2023-04-01T01:42:20.754Z,98.73
2023-04-01T01:42:57.178Z,98.69
2023-04-01T01:43:33.433Z,98.76
2023-04-01T01:44:08.115Z,98.87
2023-04-01T01:44:42.622Z,98.90
2023-04-01T01:45:18.851Z,98.88
2023-04-01T01:45:55.828Z,98.94
2023-04-01T01:46:30.056Z,98.88
2023-04-01T01:47:02.371Z,98.82
2023-04-01T01:47:36.102Z,98.82
2023-04-01T01:48:10.145Z,98.75
2023-04-01T01:48:43.702Z,98.55
2023-04-01T01:49:16.478Z,98.77
2023-04-01T01:49:48.276Z,98.68
2023-04-01T01:50:22.528Z,98.78
2023-04-01T01:50:54.805Z,98.68
2023-04-01T01:51:28.779Z,98.69
2023-04-01T01:52:01.113Z,98.67
2023-04-01T01:52:32.758Z,98.44
2023-04-01T01:53:07.281Z,98.66
2023-04-01T01:53:39.078Z,98.74
2023-04-01T01:54:18.021Z,98.74
2023-04-01T01:54:54.314Z,98.74
2023-04-01T01:55:30.353Z,98.84
2023-04-01T01:56:02.566Z,98.75
2023-04-01T01:56:36.557Z,98.95
2023-04-01T01:57:11.468Z,98.91
2023-04-01T01:57:45.976Z,99.03
2023-04-01T01:58:25.741Z,98.98
2023-04-01T01:59:05.119Z,98.95
2023-04-01T01:59:41.172Z,98.82
2023-04-01T02:00:16.534Z,99.11
2023-04-01T02:00:54.234Z,97.60
2023-04-01T02:01:29.107Z,98.00
2023-04-01T02:02:01.748Z,98.21
2023-04-01T02:02:33.534Z,98.24
2023-04-01T02:03:06.641Z,98.38
2023-04-01T02:03:41.447Z,98.65
2023-04-01T02:04:16.376Z,98.34
2023-04-01T02:04:48.574Z,98.03
2023-04-01T02:05:24.341Z,98.12
2023-04-01T02:06:00.617Z,97.83
2023-04-01T02:06:35.867Z,97.58
2023-04-01T02:07:17.749Z,98.08
2023-04-01T02:08:14.451Z,98.05
2023-04-01T02:09:06.551Z,98.07
2023-04-01T02:09:39.191Z,98.40
2023-04-01T02:10:10.906Z,98.24
2023-04-01T02:10:46.668Z,98.31
2023-04-01T02:11:21.383Z,98.23
2023-04-01T02:12:04.982Z,98.26
2023-04-01T02:12:39.010Z,98.21
2023-04-01T02:13:26.249Z,98.21
2023-04-01T02:14:05.695Z,98.29
2023-04-01T02:15:06.288Z,98.51
2023-04-01T02:15:44.199Z,98.45
2023-04-01T02:16:25.093Z,98.62
2023-04-01T02:17:01.081Z,98.49
2023-04-01T02:17:34.900Z,98.29
2023-04-01T02:18:06.686Z,98.38
2023-04-01T02:18:40.012Z,98.43
2023-04-01T02:19:14.266Z,98.24
2023-04-01T02:20:00.370Z,98.20
2023-04-01T02:20:33.439Z,98.45
2023-04-01T02:21:06.767Z,98.42
2023-04-01T02:21:40.548Z,98.37
2023-04-01T02:22:15.730Z,98.49
2023-04-01T02:22:56.529Z,98.40
2023-04-01T02:23:29.485Z,98.29
2023-04-01T02:24:05.585Z,98.36
2023-04-01T02:24:39.877Z,98.33
2023-04-01T02:25:17.046Z,98.39
2023-04-01T02:25:49.035Z,98.31
2023-04-01T02:26:21.800Z,98.31
2023-04-01T02:26:53.744Z,98.34
2023-04-01T02:27:26.190Z,98.18
2023-04-01T02:28:00.418Z,98.31
2023-04-01T02:28:33.682Z,98.29
2023-04-01T02:29:07.145Z,98.21
2023-04-01T02:29:38.924Z,98.14
2023-04-01T02:30:11.245Z,98.18
2023-04-01T02:30:44.756Z,98.13
2023-04-01T02:31:16.751Z,98.19
2023-04-01T02:31:50.304Z,98.14
2023-04-01T02:32:22.335Z,98.30
2023-04-01T02:32:55.002Z,98.39
2023-04-01T02:33:28.534Z,98.34
2023-04-01T02:34:00.355Z,98.46
2023-04-01T02:34:32.122Z,98.57
2023-04-01T02:35:06.925Z,98.45
2023-04-01T02:35:38.889Z,98.50
2023-04-01T02:36:15.278Z,98.41
2023-04-01T02:36:49.246Z,98.44
2023-04-01T02:37:21.029Z,98.41
2023-04-01T02:37:54.885Z,98.36
2023-04-01T02:38:27.143Z,98.38
2023-04-01T02:39:03.206Z,98.19
2023-04-01T02:39:34.815Z,98.26
2023-04-01T02:40:09.119Z,98.57
2023-04-01T02:40:49.951Z,98.50
2023-04-01T02:41:22.111Z,98.62
2023-04-01T02:41:53.760Z,98.59
2023-04-01T02:42:25.449Z,98.63
2023-04-01T02:42:57.050Z,98.67
2023-04-01T02:43:28.868Z,98.39
2023-04-01T02:44:00.736Z,98.31
2023-04-01T02:44:32.575Z,98.31
2023-04-01T02:45:05.223Z,98.44
2023-04-01T02:45:36.977Z,98.51
2023-04-01T02:46:08.703Z,98.48
2023-04-01T02:46:40.629Z,98.35
2023-04-01T02:47:12.248Z,98.33
2023-04-01T02:47:43.927Z,98.31
2023-04-01T02:48:15.742Z,98.47
2023-04-01T02:48:47.381Z,98.66
2023-04-01T02:49:19.003Z,98.48
2023-04-01T02:49:50.642Z,98.36
2023-04-01T02:50:22.690Z,98.25
2023-04-01T02:50:55.290Z,98.53
2023-04-01T02:51:27.559Z,98.73
2023-04-01T02:51:59.175Z,98.57
2023-04-01T02:52:30.910Z,98.59
2023-04-01T02:53:04.834Z,98.61
2023-04-01T02:53:36.516Z,98.53
2023-04-01T02:54:08.158Z,98.37
2023-04-01T02:54:39.788Z,98.80
2023-04-01T02:55:11.514Z,99.01
2023-04-01T02:55:43.293Z,99.02
2023-04-01T02:56:15.148Z,99.04
2023-04-01T02:56:46.999Z,99.06
2023-04-01T02:57:18.819Z,98.93
2023-04-01T02:57:50.527Z,98.93
2023-04-01T02:58:22.130Z,98.78
2023-04-01T02:58:54.944Z,98.89
2023-04-01T02:59:26.556Z,99.06
2023-04-01T02:59:58.200Z,99.01
2023-04-01T03:00:29.942Z,98.73
2023-04-01T03:01:01.618Z,98.68
2023-04-01T03:01:33.559Z,98.77
2023-04-01T03:02:05.317Z,98.78
2023-04-01T03:02:37.451Z,98.83
2023-04-01T03:03:09.918Z,98.79
2023-04-01T03:03:42.131Z,98.72
2023-04-01T03:04:13.766Z,98.91
2023-04-01T03:04:45.628Z,99.03
2023-04-01T03:05:17.277Z,98.94
2023-04-01T03:05:48.911Z,98.84
2023-04-01T03:06:20.640Z,98.91
2023-04-01T03:06:52.507Z,98.84
2023-04-01T03:07:24.314Z,98.68
2023-04-01T03:07:56.234Z,98.94
2023-04-01T03:08:27.829Z,98.97
2023-04-01T03:08:59.404Z,99.02
2023-04-01T03:09:31.284Z,99.03
2023-04-01T03:10:03.009Z,99.11
2023-04-01T03:10:34.695Z,99.09
2023-04-01T03:11:06.995Z,99.16
2023-04-01T03:11:38.675Z,99.26
2023-04-01T03:12:10.701Z,99.23
2023-04-01T03:12:42.340Z,99.19
2023-04-01T03:13:13.909Z,99.19
2023-04-01T03:13:45.535Z,99.20
2023-04-01T03:14:17.207Z,99.11
2023-04-01T03:14:48.873Z,99.12
2023-04-01T03:15:20.683Z,99.00
2023-04-01T03:15:52.262Z,98.99
2023-04-01T03:16:24.623Z,98.94
2023-04-01T03:16:56.525Z,98.86
2023-04-01T03:17:28.198Z,98.89
2023-04-01T03:17:59.876Z,98.90
2023-04-01T03:18:31.507Z,98.99
2023-04-01T03:19:03.349Z,98.95
2023-04-01T03:19:34.979Z,98.83
2023-04-01T03:20:09.457Z,98.77
2023-04-01T03:20:41.186Z,98.80
2023-04-01T03:21:23.902Z,98.84
2023-04-01T03:21:55.622Z,98.77
2023-04-01T03:22:27.227Z,98.66
2023-04-01T03:22:58.822Z,98.60
2023-04-01T03:23:30.440Z,98.65
2023-04-01T03:24:02.335Z,98.70
2023-04-01T03:24:33.965Z,98.74
2023-04-01T03:25:06.993Z,98.83
2023-04-01T03:25:38.759Z,98.75
2023-04-01T03:26:10.434Z,98.45
2023-04-01T03:26:42.012Z,98.38
2023-04-01T03:27:13.939Z,98.61
2023-04-01T03:27:45.775Z,98.53
2023-04-01T03:28:17.377Z,98.57
2023-04-01T03:28:49.045Z,98.67
2023-04-01T03:29:20.860Z,98.50
2023-04-01T03:29:52.552Z,98.35
2023-04-01T03:30:24.226Z,98.54
2023-04-01T03:30:55.959Z,98.43
2023-04-01T03:31:27.753Z,98.98
2023-04-01T03:31:59.955Z,98.83
2023-04-01T03:32:31.690Z,98.90
2023-04-01T03:33:03.869Z,98.88
2023-04-01T03:33:35.746Z,98.73
2023-04-01T03:34:07.356Z,98.66
2023-04-01T03:34:38.985Z,98.71
2023-04-01T03:35:11.395Z,98.84
2023-04-01T03:35:42.987Z,98.75
2023-04-01T03:36:15.343Z,98.83
2023-04-01T03:36:46.924Z,98.82
2023-04-01T03:37:18.579Z,98.63
2023-04-01T03:37:52.646Z,98.89
2023-04-01T03:38:24.370Z,98.98
2023-04-01T03:38:56.030Z,98.97
2023-04-01T03:39:27.697Z,98.76
2023-04-01T03:39:59.294Z,98.74
2023-04-01T03:40:30.951Z,98.88
2023-04-01T03:41:02.848Z,99.04
2023-04-01T03:41:37.383Z,99.15
2023-04-01T03:42:09.047Z,99.13
2023-04-01T03:42:40.836Z,99.21
2023-04-01T03:43:13.274Z,99.05
2023-04-01T03:43:45.705Z,98.88
2023-04-01T03:44:17.498Z,98.71
2023-04-01T03:44:49.126Z,98.66
2023-04-01T03:45:20.908Z,98.72
2023-04-01T03:45:52.958Z,98.64
2023-04-01T03:46:24.609Z,98.62
2023-04-01T03:46:56.216Z,98.69
2023-04-01T03:47:28.008Z,98.97
2023-04-01T03:47:59.633Z,99.11
2023-04-01T03:48:31.617Z,98.95
2023-04-01T03:49:03.821Z,98.92
2023-04-01T03:49:35.721Z,98.83
2023-04-01T03:50:08.781Z,98.73
2023-04-01T03:50:40.419Z,98.58
2023-04-01T03:51:12.068Z,98.70
2023-04-01T03:51:45.210Z,98.74
2023-04-01T03:52:16.870Z,98.92
2023-04-01T03:52:48.478Z,98.89
2023-04-01T03:53:20.786Z,98.82
2023-04-01T03:53:52.420Z,98.80
2023-04-01T03:54:24.089Z,98.63
2023-04-01T03:54:55.756Z,98.45
2023-04-01T03:55:27.397Z,98.51
2023-04-01T03:55:59.000Z,98.33
2023-04-01T03:56:30.591Z,98.47
2023-04-01T03:57:02.321Z,98.62
2023-04-01T03:57:34.441Z,98.73
2023-04-01T03:58:08.067Z,98.90
2023-04-01T03:58:40.111Z,98.78
2023-04-01T03:59:11.894Z,98.91
2023-04-01T03:59:43.517Z,98.49
2023-04-01T04:00:16.456Z,98.22
2023-04-01T04:00:48.039Z,98.36
2023-04-01T04:01:22.236Z,98.45
2023-04-01T04:01:53.868Z,98.48
2023-04-01T04:02:25.617Z,98.63
2023-04-01T04:02:57.768Z,98.77
2023-04-01T04:03:29.772Z,98.72
2023-04-01T04:04:01.766Z,98.59
2023-04-01T04:04:33.487Z,98.60
2023-04-01T04:05:05.597Z,98.51
2023-04-01T04:05:37.178Z,98.55
2023-04-01T04:06:12.738Z,98.78
2023-04-01T04:06:44.383Z,98.95
2023-04-01T04:07:16.070Z,98.80
2023-04-01T04:07:47.696Z,98.89
2023-04-01T04:08:19.517Z,98.87
2023-04-01T04:08:51.175Z,98.58
2023-04-01T04:09:23.168Z,98.65
2023-04-01T04:09:54.778Z,98.90
2023-04-01T04:10:26.524Z,98.64
2023-04-01T04:10:58.266Z,98.59
2023-04-01T04:11:32.384Z,98.76
2023-04-01T04:12:04.251Z,98.73
2023-04-01T04:12:35.805Z,98.65
2023-04-01T04:13:07.431Z,98.59
2023-04-01T04:13:39.305Z,98.42
2023-04-01T04:14:10.955Z,98.47
2023-04-01T04:14:42.518Z,98.49
2023-04-01T04:15:14.160Z,98.58
2023-04-01T04:15:45.971Z,98.67
2023-04-01T04:16:18.281Z,98.52
2023-04-01T04:16:50.336Z,98.50
2023-04-01T04:17:22.124Z,98.59
2023-04-01T04:17:53.860Z,98.61
2023-04-01T04:18:25.577Z,98.71
2023-04-01T04:18:57.212Z,98.38
2023-04-01T04:19:34.899Z,98.10
2023-04-01T04:20:07.090Z,98.13
2023-04-01T04:20:46.623Z,98.24
2023-04-01T04:21:18.269Z,98.53
2023-04-01T04:21:50.055Z,98.98
2023-04-01T04:22:21.747Z,98.78
2023-04-01T04:22:53.335Z,98.87
2023-04-01T04:23:25.063Z,99.01
2023-04-01T04:23:56.714Z,98.92
2023-04-01T04:24:28.547Z,98.72
2023-04-01T04:25:00.384Z,98.71
2023-04-01T04:25:32.194Z,98.88
2023-04-01T04:26:06.677Z,98.72
2023-04-01T04:26:38.294Z,98.59
2023-04-01T04:27:09.936Z,98.88
2023-04-01T04:27:41.712Z,98.89
2023-04-01T04:28:13.272Z,98.72
2023-04-01T04:28:45.078Z,98.61
2023-04-01T04:29:16.690Z,98.65
2023-04-01T04:29:48.277Z,98.76
2023-04-01T04:30:20.070Z,98.70
2023-04-01T04:30:52.384Z,98.76
2023-04-01T04:31:25.560Z,98.59
2023-04-01T04:31:57.617Z,98.68
2023-04-01T04:32:30.010Z,98.64
2023-04-01T04:33:01.789Z,98.71
2023-04-01T04:33:33.875Z,98.71
2023-04-01T04:34:05.484Z,98.64
2023-04-01T04:34:37.144Z,98.81
2023-04-01T04:35:09.273Z,98.81
2023-04-01T04:35:40.868Z,98.80
2023-04-01T04:36:12.524Z,98.70
2023-04-01T04:36:44.191Z,98.72
2023-04-01T04:37:15.819Z,98.63
2023-04-01T04:37:47.537Z,98.70
2023-04-01T04:38:19.177Z,98.89
2023-04-01T04:38:50.917Z,98.83
2023-04-01T04:39:22.598Z,98.71
2023-04-01T04:39:54.232Z,98.76
2023-04-01T04:40:25.874Z,98.68
2023-04-01T04:40:57.530Z,98.65
2023-04-01T04:41:29.144Z,98.52
2023-04-01T04:42:00.858Z,98.52
2023-04-01T04:42:32.466Z,98.62
2023-04-01T04:43:04.948Z,98.65
2023-04-01T04:43:36.523Z,98.65
2023-04-01T04:44:08.631Z,98.70
2023-04-01T04:44:40.529Z,98.57
2023-04-01T04:45:13.707Z,98.84
2023-04-01T04:45:45.618Z,98.45
2023-04-01T04:46:17.266Z,98.45
2023-04-01T04:46:48.991Z,98.44
2023-04-01T04:47:20.904Z,98.62
2023-04-01T04:47:52.572Z,98.56
2023-04-01T04:48:24.284Z,98.46
2023-04-01T04:48:56.055Z,98.54
2023-04-01T04:49:27.669Z,98.63
2023-04-01T04:49:59.310Z,98.63
2023-04-01T04:50:31.349Z,98.89
2023-04-01T04:51:03.525Z,98.95
2023-04-01T04:51:36.841Z,98.92
2023-04-01T04:52:08.787Z,98.91
2023-04-01T04:52:40.602Z,99.02
2023-04-01T04:53:16.642Z,99.10
2023-04-01T04:53:50.783Z,99.12
2023-04-01T04:54:23.198Z,99.22
2023-04-01T04:54:54.850Z,98.88
2023-04-01T04:55:26.514Z,98.56
2023-04-01T04:55:58.148Z,98.65
2023-04-01T04:56:29.918Z,98.44
2023-04-01T04:57:01.641Z,98.35
2023-04-01T04:57:33.288Z,98.16
2023-04-01T04:58:05.005Z,98.28
2023-04-01T04:58:37.863Z,98.53
2023-04-01T04:59:09.563Z,98.38
2023-04-01T04:59:41.302Z,98.31
2023-04-01T05:00:13.305Z,98.37
2023-04-01T05:00:44.934Z,98.38
2023-04-01T05:01:18.130Z,98.43
2023-04-01T05:01:49.917Z,98.45
2023-04-01T05:02:21.613Z,98.25
2023-04-01T05:02:53.429Z,98.28
2023-04-01T05:03:25.484Z,98.34
2023-04-01T05:03:57.176Z,98.38
2023-04-01T05:04:28.841Z,98.57
2023-04-01T05:05:00.447Z,98.40
2023-04-01T05:05:32.312Z,98.12
2023-04-01T05:06:05.423Z,98.11
2023-04-01T05:06:37.019Z,98.08
2023-04-01T05:07:08.668Z,98.22
2023-04-01T05:07:40.343Z,98.07
2023-04-01T05:08:12.022Z,98.16
2023-04-01T05:08:45.215Z,98.01
2023-04-01T05:09:16.852Z,97.68
2023-04-01T05:09:48.480Z,97.70
2023-04-01T05:10:21.717Z,97.65
2023-04-01T05:10:53.308Z,97.54
2023-04-01T05:11:26.804Z,97.70
2023-04-01T05:11:58.451Z,97.53
2023-04-01T05:12:30.050Z,98.12
2023-04-01T05:13:01.672Z,98.03
2023-04-01T05:13:33.280Z,97.79
2023-04-01T05:14:04.961Z,97.93
2023-04-01T05:14:36.694Z,98.21
2023-04-01T05:15:09.206Z,98.24
2023-04-01T05:15:41.931Z,97.92
2023-04-01T05:16:16.741Z,97.90
2023-04-01T05:16:48.474Z,97.77
2023-04-01T05:17:20.192Z,97.80
2023-04-01T05:17:51.857Z,97.68
2023-04-01T05:18:23.608Z,97.55
2023-04-01T05:18:55.309Z,97.69
2023-04-01T05:19:26.906Z,97.82
2023-04-01T05:19:59.209Z,97.76
2023-04-01T05:20:30.940Z,97.67
2023-04-01T05:21:02.527Z,97.65
2023-04-01T05:21:34.173Z,97.63
2023-04-01T05:22:06.873Z,97.66
2023-04-01T05:22:38.480Z,97.56
2023-04-01T05:23:10.126Z,97.44
2023-04-01T05:23:42.280Z,97.36
2023-04-01T05:24:13.891Z,97.07
2023-04-01T05:24:45.775Z,97.11
2023-04-01T05:25:17.502Z,97.22
2023-04-01T05:25:50.774Z,97.25
2023-04-01T05:26:22.361Z,97.46
2023-04-01T05:26:55.838Z,97.43
2023-04-01T05:27:28.550Z,97.55
2023-04-01T05:28:00.118Z,97.05
2023-04-01T05:28:31.695Z,96.83
2023-04-01T05:29:04.702Z,97.01
2023-04-01T05:29:36.309Z,97.13
2023-04-01T05:30:08.510Z,96.96
2023-04-01T05:30:44.511Z,97.24
2023-04-01T05:31:16.180Z,97.18
2023-04-01T05:31:47.874Z,96.67
2023-04-01T05:32:19.497Z,96.59
2023-04-01T05:32:51.093Z,96.68
2023-04-01T05:33:22.701Z,96.75
2023-04-01T05:33:55.212Z,97.19
2023-04-01T05:34:26.800Z,97.19
2023-04-01T05:34:58.435Z,97.20
2023-04-01T05:35:30.156Z,97.01
2023-04-01T05:36:13.415Z,97.06
2023-04-01T05:36:45.454Z,97.02
2023-04-01T05:37:17.052Z,97.03
2023-04-01T05:37:48.680Z,97.11
2023-04-01T05:38:20.353Z,96.86
2023-04-01T05:38:52.002Z,96.46
2023-04-01T05:39:24.557Z,96.30
2023-04-01T05:39:56.385Z,96.19
2023-04-01T05:40:29.179Z,96.39
2023-04-01T05:41:02.127Z,96.22
2023-04-01T05:41:36.931Z,96.24
2023-04-01T05:42:08.952Z,96.38
2023-04-01T05:42:40.717Z,96.67
2023-04-01T05:43:12.633Z,96.59
2023-04-01T05:43:44.231Z,96.59
2023-04-01T05:44:15.900Z,96.50
2023-04-01T05:44:47.533Z,96.56
2023-04-01T05:45:19.259Z,96.87
2023-04-01T05:45:52.131Z,96.84
2023-04-01T05:46:23.791Z,96.83
2023-04-01T05:46:55.558Z,96.71
2023-04-01T05:47:27.198Z,97.20
2023-04-01T05:48:00.204Z,97.48
2023-04-01T05:48:31.861Z,97.24
2023-04-01T05:49:03.677Z,97.01
2023-04-01T05:49:36.358Z,97.35
2023-04-01T05:50:08.228Z,97.20
2023-04-01T05:50:42.397Z,97.08
2023-04-01T05:51:17.107Z,97.02
2023-04-01T05:51:48.788Z,96.77
2023-04-01T05:52:20.405Z,96.64
2023-04-01T05:52:52.047Z,96.32
2023-04-01T05:53:23.666Z,96.14
2023-04-01T05:53:55.348Z,96.30
2023-04-01T05:54:27.015Z,95.98
2023-04-01T05:54:59.801Z,96.10
2023-04-01T05:55:31.872Z,96.30
2023-04-01T05:56:05.083Z,96.02
2023-04-01T05:56:36.705Z,95.88
2023-04-01T05:57:08.789Z,96.05
2023-04-01T05:57:40.675Z,96.11
2023-04-01T05:58:12.344Z,96.27
2023-04-01T05:58:43.928Z,95.99
2023-04-01T05:59:15.776Z,96.29
2023-04-01T05:59:47.489Z,95.90
2023-04-01T06:00:20.924Z,95.86
2023-04-01T06:01:08.057Z,96.05
2023-04-01T06:01:41.919Z,95.96
2023-04-01T06:02:13.864Z,95.35
2023-04-01T06:02:47.414Z,95.21
2023-04-01T06:03:19.249Z,95.51
2023-04-01T06:03:51.308Z,95.33
2023-04-01T06:04:23.239Z,95.52
2023-04-01T06:05:22.400Z,95.32
2023-04-01T06:05:53.998Z,95.35
2023-04-01T06:06:30.466Z,95.38
2023-04-01T06:07:02.259Z,94.84
2023-04-01T06:07:33.973Z,94.75
2023-04-01T06:08:19.806Z,94.80
2023-04-01T06:08:54.175Z,94.97
2023-04-01T06:09:30.407Z,94.49
2023-04-01T06:10:02.001Z,94.05
2023-04-01T06:11:07.099Z,94.06
2023-04-01T06:11:58.844Z,93.98
2023-04-01T06:12:36.144Z,93.58
2023-04-01T06:13:13.483Z,93.29
2023-04-01T06:14:10.397Z,93.17
2023-04-01T06:15:05.873Z,93.80
2023-04-01T06:15:51.872Z,94.28
2023-04-01T06:16:51.378Z,94.02
2023-04-01T06:17:25.596Z,94.35
2023-04-01T06:18:17.503Z,93.98
2023-04-01T06:18:57.323Z,93.74
2023-04-01T06:19:38.346Z,93.14
2023-04-01T06:20:28.578Z,92.97
2023-04-01T06:21:07.584Z,93.22
2023-04-01T06:21:42.101Z,92.52
2023-04-01T06:22:22.760Z,92.33
2023-04-01T06:23:26.326Z,92.57
2023-04-01T06:24:06.678Z,92.40
2023-04-01T06:25:19.771Z,92.01
2023-04-01T06:26:04.281Z,92.22
2023-04-01T06:26:40.984Z,92.06
2023-04-01T06:27:33.824Z,92.49
2023-04-01T06:28:37.125Z,92.55
2023-04-01T06:29:30.756Z,91.61
2023-04-01T06:30:39.561Z,92.20
2023-04-01T06:31:31.718Z,90.99
2023-04-01T06:32:37.421Z,90.28
2023-04-01T06:33:29.923Z,90.51
2023-04-01T06:34:13.731Z,90.74
2023-04-01T06:35:06.447Z,89.82
2023-04-01T06:36:15.200Z,88.75
2023-04-01T06:37:01.375Z,88.47
2023-04-01T06:38:03.564Z,88.23
2023-04-01T06:38:52.260Z,85.81
2023-04-01T06:39:56.711Z,85.85
2023-04-01T06:41:25.795Z,86.69
2023-04-01T06:42:18.606Z,85.54
2023-04-01T06:42:55.956Z,85.16
2023-04-01T06:43:42.862Z,84.32
2023-04-01T06:44:26.238Z,84.97
2023-04-01T06:45:22.046Z,85.07
2023-04-01T06:46:06.410Z,86.05
2023-04-01T06:46:44.617Z,85.45
2023-04-01T06:47:54.896Z,85.32
2023-04-01T06:48:52.340Z,83.72
2023-04-01T06:49:35.111Z,85.06
2023-04-01T06:50:12.597Z,86.63
2023-04-01T06:51:12.902Z,85.66
2023-04-01T06:51:57.621Z,84.17
2023-04-01T06:52:46.815Z,83.26
2023-04-01T06:53:31.628Z,84.79
2023-04-01T06:54:18.459Z,82.56
2023-04-01T06:54:56.802Z,83.41
2023-04-01T06:55:41.497Z,82.67
2023-04-01T06:56:17.774Z,83.01
2023-04-01T06:56:56.493Z,81.70
2023-04-01T06:57:42.975Z,81.77
2023-04-01T06:58:36.094Z,80.03
2023-04-01T06:59:18.650Z,80.07
2023-04-01T06:59:51.451Z,81.63
2023-04-01T07:00:33.976Z,81.09
2023-04-01T07:01:09.392Z,80.24
2023-04-01T07:01:45.795Z,80.33
2023-04-01T07:02:28.842Z,80.25
2023-04-01T07:03:34.416Z,79.17
2023-04-01T07:04:35.846Z,78.88
2023-04-01T07:05:08.504Z,78.58
2023-04-01T07:05:40.647Z,79.28
2023-04-01T07:06:38.723Z,78.44
2023-04-01T07:07:20.461Z,78.27
2023-04-01T07:07:58.821Z,77.09
2023-04-01T07:08:32.425Z,79.06
2023-04-01T07:09:11.522Z,77.81
2023-04-01T07:09:50.232Z,77.86
2023-04-01T07:10:32.316Z,78.45
2023-04-01T07:11:06.341Z,79.93
2023-04-01T07:11:40.094Z,78.30
2023-04-01T07:12:46.616Z,78.14
2023-04-01T07:13:36.307Z,76.19
2023-04-01T07:14:14.743Z,77.94
2023-04-01T07:14:49.087Z,77.85
2023-04-01T07:15:26.032Z,76.04
2023-04-01T07:16:13.823Z,74.10
2023-04-01T07:16:50.287Z,73.58
2023-04-01T07:17:28.731Z,73.47
2023-04-01T07:18:06.896Z,75.04
2023-04-01T07:18:45.476Z,74.71
2023-04-01T07:19:28.028Z,73.49
2023-04-01T07:20:05.913Z,74.63
2023-04-01T07:20:39.016Z,73.28
2023-04-01T07:21:21.933Z,72.71
2023-04-01T07:22:01.351Z,71.32
2023-04-01T07:22:45.621Z,71.28
2023-04-01T07:23:32.462Z,71.77
2023-04-01T07:24:28.716Z,71.11
2023-04-01T07:25:14.349Z,70.92
2023-04-01T07:25:48.915Z,70.21
2023-04-01T07:26:22.671Z,68.92
2023-04-01T07:26:57.375Z,69.38
2023-04-01T07:27:28.944Z,69.84
2023-04-01T07:28:07.482Z,69.21
2023-04-01T07:28:41.205Z,68.53
2023-04-01T07:29:15.530Z,67.70
2023-04-01T07:29:48.055Z,67.86
2023-04-01T07:30:22.345Z,67.29
2023-04-01T07:31:03.591Z,68.75
2023-04-01T07:31:52.845Z,69.16
2023-04-01T07:32:55.518Z,69.26
2023-04-01T07:34:12.030Z,69.34
2023-04-01T07:35:01.555Z,67.76
2023-04-01T07:36:02.835Z,70.68
2023-04-01T07:36:43.126Z,70.69
2023-04-01T07:37:48.638Z,70.79
2023-04-01T07:38:45.426Z,72.10
2023-04-01T07:39:26.129Z,70.10
2023-04-01T07:40:32.978Z,70.26
2023-04-01T07:41:12.343Z,70.67
2023-04-01T07:41:48.289Z,69.97
2023-04-01T07:42:25.759Z,70.62
2023-04-01T07:43:13.058Z,70.60